^^
B2 Weather Station Historical Data
Daily Summary for November 12, 2019 Units:  English    Metric   Both
Daily Weekly Monthly Yearly Custom
  High: Low: Average:
Temperature: 18 °F 7.2 °F 12.7 °F
Dew Point: 6.9 °F 1.8 °F 3.8 °F
Humidity: 79% 51% 68%
Wind Speed: 15mph 0mph 7.4mph
Wind Gust: 9.5mph - -
Wind- - WNW
Pressure: 30.58 in 30.44 in -
Precipitation: 0 in    
Historical Graphs
 
 
Tabular Data for November 12, 2019
Time Temperature Dew Point Pressure Wind Wind Speed Wind Gust Humidity Rainfall Rate (Hourly) solar
00:00 13.3 °F 6 °F 30.44 in NW 10.4 mph 6.8 mph 72% 0 in 0.00 W/m2
00:05 13.2 °F 6.2 °F 30.44 in NW 8.1 mph 5.8 mph 73% 0 in 0.00 W/m2
00:10 13 °F 6 °F 30.44 in NW 9.2 mph 4.9 mph 73% 0 in 0.00 W/m2
00:15 13 °F 5.7 °F 30.44 in NW 10.4 mph 6.8 mph 72% 0 in 0.00 W/m2
00:20 12.9 °F 5.9 °F 30.45 in WNW 9.2 mph 4.6 mph 73% 0 in 0.00 W/m2
00:25 12.8 °F 5.8 °F 30.45 in NW 8.1 mph 5.9 mph 73% 0 in 0.00 W/m2
00:30 12.7 °F 5.4 °F 30.45 in NW 12.7 mph 5.9 mph 72% 0 in 0.00 W/m2
00:35 12.7 °F 5.4 °F 30.44 in NW 6.9 mph 6 mph 72% 0 in 0.00 W/m2
00:40 12.7 °F 5.4 °F 30.44 in NW 10.4 mph 5.6 mph 72% 0 in 0.00 W/m2
00:45 12.6 °F 5.3 °F 30.44 in NW 11.5 mph 6.8 mph 72% 0 in 0.00 W/m2
00:50 12.5 °F 5.2 °F 30.44 in NW 10.4 mph 7.3 mph 72% 0 in 0.00 W/m2
00:55 12.5 °F 5.2 °F 30.45 in NW 9.2 mph 5.2 mph 72% 0 in 0.00 W/m2
01:00 12.4 °F 5.1 °F 30.45 in NW 9 mph 4.4 mph 72% 0 in 0.00 W/m2
01:05 12.2 °F 4.9 °F 30.45 in WNW 8.1 mph 5.2 mph 72% 0 in 0.00 W/m2
01:10 12.1 °F 4.8 °F 30.45 in NW 5.8 mph 3.6 mph 72% 0 in 0.00 W/m2
01:15 12.1 °F 4.8 °F 30.45 in NNW 8.1 mph 5.3 mph 72% 0 in 0.00 W/m2
01:20 12.1 °F 4.8 °F 30.45 in NNW 11.5 mph 7.6 mph 72% 0 in 0.00 W/m2
01:25 12.1 °F 4.8 °F 30.45 in West 12 mph 6.7 mph 72% 0 in 0.00 W/m2
01:30 12 °F 4.7 °F 30.45 in WNW 7 mph 3.1 mph 72% 0 in 0.00 W/m2
01:35 11.8 °F 4.5 °F 30.45 in NW 9.2 mph 6.5 mph 72% 0 in 0.00 W/m2
01:40 11.7 °F 4.4 °F 30.45 in NW 15 mph 9.5 mph 72% 0 in 0.00 W/m2
01:45 11.7 °F 4.4 °F 30.45 in North 13.8 mph 7.4 mph 72% 0 in 0.00 W/m2
01:50 11.6 °F 4.3 °F 30.46 in NNW 12.7 mph 7.5 mph 72% 0 in 0.00 W/m2
01:55 11.5 °F 4.2 °F 30.46 in WNW 11.5 mph 8.9 mph 72% 0 in 0.00 W/m2
02:00 11.4 °F 4.1 °F 30.46 in WNW 12.7 mph 5.9 mph 72% 0 in 0.00 W/m2
02:05 11.3 °F 4.3 °F 30.46 in NNW 10.4 mph 4.9 mph 73% 0 in 0.00 W/m2
02:10 11.1 °F 4.1 °F 30.46 in WNW 9.2 mph 6.1 mph 73% 0 in 0.00 W/m2
02:15 11 °F 4.3 °F 30.46 in WNW 10.4 mph 6.4 mph 74% 0 in 0.00 W/m2
02:20 10.9 °F 4.2 °F 30.46 in NW 8.1 mph 5.4 mph 74% 0 in 0.00 W/m2
02:25 10.8 °F 4.1 °F 30.46 in NNW 8.1 mph 5.1 mph 74% 0 in 0.00 W/m2
02:30 10.7 °F 4 °F 30.46 in NW 9.2 mph 6.8 mph 74% 0 in 0.00 W/m2
02:35 10.6 °F 4.2 °F 30.46 in NW 11.5 mph 6.8 mph 75% 0 in 0.00 W/m2
02:40 10.5 °F 4.1 °F 30.46 in WNW 9.2 mph 5.9 mph 75% 0 in 0.00 W/m2
02:45 10.4 °F 4 °F 30.46 in NW 8 mph 3.9 mph 75% 0 in 0.00 W/m2
02:50 10.3 °F 3.9 °F 30.46 in NNW 11.5 mph 8.1 mph 75% 0 in 0.00 W/m2
02:55 10.3 °F 4.2 °F 30.47 in WNW 10.4 mph 6.9 mph 76% 0 in 0.00 W/m2
03:00 10.3 °F 4.2 °F 30.47 in WNW 10.4 mph 6.3 mph 76% 0 in 0.00 W/m2
03:05 10.3 °F 4.2 °F 30.47 in NNW 10.4 mph 6.7 mph 76% 0 in 0.00 W/m2
03:10 10.2 °F 4.1 °F 30.47 in WNW 10.4 mph 7.1 mph 76% 0 in 0.00 W/m2
03:15 10.1 °F 4 °F 30.47 in NW 10.4 mph 6.8 mph 76% 0 in 0.00 W/m2
03:20 10.1 °F 4 °F 30.47 in NW 11.5 mph 5.7 mph 76% 0 in 0.00 W/m2
03:25 10 °F 4.2 °F 30.47 in NW 10.4 mph 5.5 mph 77% 0 in 0.00 W/m2
03:30 9.9 °F 4.1 °F 30.47 in WNW 9.2 mph 6.6 mph 77% 0 in 0.00 W/m2
03:35 9.9 °F 4.1 °F 30.47 in WNW 7 mph 4.3 mph 77% 0 in 0.00 W/m2
03:40 9.8 °F 4 °F 30.47 in NW 6.9 mph 4.2 mph 77% 0 in 0.00 W/m2
03:45 9.6 °F 3.8 °F 30.48 in NW 10.4 mph 4.5 mph 77% 0 in 0.00 W/m2
03:50 9.5 °F 3.7 °F 30.48 in WNW 10.4 mph 5.9 mph 77% 0 in 0.00 W/m2
03:55 9.4 °F 3.6 °F 30.48 in NNW 8.1 mph 5.8 mph 77% 0 in 0.00 W/m2
04:00 9.4 °F 3.6 °F 30.48 in NW 10.4 mph 6.3 mph 77% 0 in 0.00 W/m2
04:05 9.4 °F 3.6 °F 30.49 in NW 11.5 mph 7.4 mph 77% 0 in 0.00 W/m2
04:10 9.3 °F 3.5 °F 30.49 in NNW 8.1 mph 5.2 mph 77% 0 in 0.00 W/m2
04:15 9.3 °F 3.5 °F 30.49 in NW 8.1 mph 5.2 mph 77% 0 in 0.00 W/m2
04:20 9.2 °F 3.4 °F 30.49 in NNW 4.6 mph 3.1 mph 77% 0 in 0.00 W/m2
04:25 9.1 °F 3.4 °F 30.49 in NW 7 mph 3.9 mph 77% 0 in 0.00 W/m2
04:30 9.1 °F 3.4 °F 30.49 in NW 8.1 mph 6.2 mph 77% 0 in 0.00 W/m2
04:35 9 °F 3.3 °F 30.50 in NNW 8.1 mph 4.8 mph 77% 0 in 0.00 W/m2
04:40 9 °F 3.3 °F 30.50 in NW 7 mph 4.2 mph 77% 0 in 0.00 W/m2
04:45 8.9 °F 3.2 °F 30.50 in NW 8.1 mph 5 mph 77% 0 in 0.00 W/m2
04:50 8.8 °F 3.1 °F 30.50 in NW 8.1 mph 4.4 mph 77% 0 in 0.00 W/m2
04:55 8.7 °F 3 °F 30.50 in NW 6.9 mph 3.7 mph 77% 0 in 0.00 W/m2
05:00 8.6 °F 2.9 °F 30.50 in NW 9.2 mph 4.7 mph 77% 0 in 0.00 W/m2
05:05 8.6 °F 2.9 °F 30.50 in NW 9.2 mph 7 mph 77% 0 in 0.00 W/m2
05:10 8.6 °F 2.9 °F 30.50 in NW 8.1 mph 3.6 mph 77% 0 in 0.00 W/m2
05:15 8.6 °F 2.9 °F 30.50 in NW 8.1 mph 4.5 mph 77% 0 in 0.00 W/m2
05:20 8.6 °F 2.9 °F 30.50 in NW 10.4 mph 5.1 mph 77% 0 in 0.00 W/m2
05:25 8.4 °F 2.7 °F 30.51 in NW 6.9 mph 4.8 mph 77% 0 in 0.00 W/m2
05:30 8.2 °F 2.5 °F 30.50 in NW 4.6 mph 3.3 mph 77% 0 in 0.00 W/m2
05:35 8 °F 2.3 °F 30.50 in NW 9.2 mph 6 mph 77% 0 in 0.00 W/m2
05:40 7.9 °F 2.5 °F 30.50 in NW 6.9 mph 5 mph 78% 0 in 0.00 W/m2
05:45 7.8 °F 2.4 °F 30.51 in WNW 6.9 mph 4.5 mph 78% 0 in 0.00 W/m2
05:50 7.7 °F 2.3 °F 30.51 in NW 6.9 mph 4.2 mph 78% 0 in 0.00 W/m2
05:55 7.6 °F 2.2 °F 30.51 in WNW 6.9 mph 5.5 mph 78% 0 in 0.00 W/m2
06:00 7.5 °F 2.1 °F 30.51 in NW 9 mph 3.5 mph 78% 0 in 0.00 W/m2
06:05 7.3 °F 2.2 °F 30.51 in NNW 10.4 mph 5.8 mph 79% 0 in 0.00 W/m2
06:10 7.3 °F 2.2 °F 30.52 in WNW 8.1 mph 4.4 mph 79% 0 in 0.00 W/m2
06:15 7.4 °F 2.3 °F 30.52 in NW 9.2 mph 5.4 mph 79% 0 in 0.00 W/m2
06:20 7.4 °F 2.3 °F 30.52 in NW 10.4 mph 6.5 mph 79% 0 in 0.00 W/m2
06:25 7.4 °F 2 °F 30.52 in NNW 8.1 mph 6 mph 78% 0 in 0.00 W/m2
06:30 7.3 °F 1.9 °F 30.52 in NW 11.5 mph 6.8 mph 78% 0 in 0.00 W/m2
06:35 7.3 °F 1.9 °F 30.52 in NW 9.2 mph 6.6 mph 78% 0 in 0.00 W/m2
06:40 7.2 °F 1.8 °F 30.53 in NW 10 mph 5.7 mph 78% 0 in 7.00 W/m2
06:45 7.3 °F 1.9 °F 30.53 in West 8 mph 4.2 mph 78% 0 in 9.00 W/m2
06:50 7.3 °F 1.9 °F 30.53 in NW 11.5 mph 7.8 mph 78% 0 in 12.00 W/m2
06:55 7.3 °F 1.9 °F 30.53 in NW 9.2 mph 7 mph 78% 0 in 16.00 W/m2
07:00 7.3 °F 1.9 °F 30.54 in NNW 10.4 mph 7.1 mph 78% 0 in 21.00 W/m2
07:05 7.4 °F 2 °F 30.54 in NW 11.5 mph 5.9 mph 78% 0 in 32.00 W/m2
07:10 7.5 °F 2.1 °F 30.54 in NW 8.1 mph 4.9 mph 78% 0 in 42.00 W/m2
07:15 7.6 °F 2.2 °F 30.54 in NW 10 mph 5.2 mph 78% 0 in 53.00 W/m2
07:20 7.6 °F 2.2 °F 30.54 in NNW 8.1 mph 5.1 mph 78% 0 in 67.00 W/m2
07:25 7.7 °F 2 °F 30.54 in NW 8.1 mph 5.8 mph 77% 0 in 81.00 W/m2
07:30 7.8 °F 2.4 °F 30.54 in NNW 8.1 mph 5.9 mph 78% 0 in 93.00 W/m2
07:35 7.9 °F 2.2 °F 30.55 in NNW 10.4 mph 6.6 mph 77% 0 in 109.00 W/m2
07:40 8 °F 2.3 °F 30.55 in NW 9.2 mph 6.1 mph 77% 0 in 127.00 W/m2
07:45 8.1 °F 2.4 °F 30.55 in NNW 9.2 mph 5.9 mph 77% 0 in 144.00 W/m2
07:50 8.2 °F 2.5 °F 30.56 in NNW 8.1 mph 6.2 mph 77% 0 in 162.00 W/m2
07:55 8.4 °F 2.7 °F 30.56 in WNW 13.8 mph 3.8 mph 77% 0 in 181.00 W/m2
08:00 8.5 °F 2.5 °F 30.56 in WNW 8.1 mph 5.1 mph 76% 0 in 195.00 W/m2
08:05 8.6 °F 2.6 °F 30.56 in NW 10.4 mph 6.7 mph 76% 0 in 213.00 W/m2
08:10 8.8 °F 2.8 °F 30.56 in NNW 8.1 mph 4.8 mph 76% 0 in 230.00 W/m2
08:15 9.1 °F 3.1 °F 30.56 in NNW 11.5 mph 7.4 mph 76% 0 in 246.00 W/m2
08:20 9.2 °F 3.2 °F 30.56 in NW 10.4 mph 6.9 mph 76% 0 in 262.00 W/m2
08:25 9.3 °F 3.3 °F 30.57 in NW 9.2 mph 5.2 mph 76% 0 in 274.00 W/m2
08:30 9.5 °F 3.2 °F 30.57 in NW 10.4 mph 6.2 mph 75% 0 in 288.00 W/m2
08:35 9.5 °F 3.2 °F 30.57 in NW 13.8 mph 8.2 mph 75% 0 in 299.00 W/m2
08:40 9.7 °F 3.4 °F 30.57 in NW 10.4 mph 7.5 mph 75% 0 in 311.00 W/m2
08:45 9.7 °F 3.4 °F 30.57 in NW 9.2 mph 6.8 mph 75% 0 in 325.00 W/m2
08:50 10 °F 3.7 °F 30.57 in NW 10.4 mph 6.2 mph 75% 0 in 338.00 W/m2
08:55 10.2 °F 3.6 °F 30.57 in NW 6.9 mph 5.6 mph 74% 0 in 348.00 W/m2
09:00 10.3 °F 3.7 °F 30.57 in NNW 9.2 mph 5.9 mph 74% 0 in 360.00 W/m2
09:05 10.7 °F 4.3 °F 30.57 in NNW 11.5 mph 6.4 mph 75% 0 in 373.00 W/m2
09:10 10.8 °F 4.1 °F 30.57 in WNW 11.5 mph 7.4 mph 74% 0 in 381.00 W/m2
09:15 10.9 °F 4.2 °F 30.57 in North 6.9 mph 4.4 mph 74% 0 in 394.00 W/m2
09:20 11.1 °F 4.4 °F 30.57 in NW 11.5 mph 6.4 mph 74% 0 in 403.00 W/m2
09:25 11.2 °F 4.2 °F 30.57 in NW 7 mph 4.7 mph 73% 0 in 415.00 W/m2
09:30 11.3 °F 4.3 °F 30.57 in WNW 11.5 mph 6.6 mph 73% 0 in 425.00 W/m2
09:35 11.3 °F 4 °F 30.57 in North 11.5 mph 7.3 mph 72% 0 in 434.00 W/m2
09:40 11.6 °F 4.6 °F 30.57 in WNW 9.2 mph 6.9 mph 73% 0 in 445.00 W/m2
09:45 11.7 °F 4.4 °F 30.57 in NW 9.2 mph 5.6 mph 72% 0 in 452.00 W/m2
09:50 12 °F 4.7 °F 30.57 in NW 10.4 mph 7.1 mph 72% 0 in 461.00 W/m2
09:55 12.2 °F 4.9 °F 30.57 in NNW 9.2 mph 6.1 mph 72% 0 in 469.00 W/m2
10:00 12.5 °F 4.9 °F 30.57 in NW 11.5 mph 6.3 mph 71% 0 in 478.00 W/m2
10:05 12.7 °F 5.1 °F 30.58 in NNW 11.5 mph 7.2 mph 71% 0 in 485.00 W/m2
10:10 12.8 °F 4.9 °F 30.58 in WNW 9.2 mph 4.6 mph 70% 0 in 492.00 W/m2
10:15 13.1 °F 5.1 °F 30.58 in NW 8.1 mph 5.6 mph 70% 0 in 499.00 W/m2
10:20 13.3 °F 5 °F 30.57 in NW 8.1 mph 4.8 mph 69% 0 in 504.00 W/m2
10:25 13.5 °F 5.5 °F 30.58 in WNW 8.1 mph 4.1 mph 70% 0 in 510.00 W/m2
10:30 13.7 °F 5.4 °F 30.58 in NNW 5.8 mph 3.5 mph 69% 0 in 517.00 W/m2
10:35 14.2 °F 5.9 °F 30.57 in WNW 5 mph 2.5 mph 69% 0 in 522.00 W/m2
10:40 14.4 °F 5.8 °F 30.58 in WNW 9.2 mph 4.1 mph 68% 0 in 527.00 W/m2
10:45 14.3 °F 5.3 °F 30.58 in NW 10.4 mph 6.6 mph 67% 0 in 533.00 W/m2
10:50 14.2 °F 4.9 °F 30.57 in WNW 11.5 mph 6.3 mph 66% 0 in 536.00 W/m2
10:55 14.6 °F 5.6 °F 30.57 in WNW 9.2 mph 6.2 mph 67% 0 in 540.00 W/m2
11:00 14.8 °F 5.5 °F 30.57 in NNW 9.2 mph 5 mph 66% 0 in 545.00 W/m2
11:05 15 °F 5.7 °F 30.57 in NW 9.2 mph 5.6 mph 66% 0 in 548.00 W/m2
11:10 15.2 °F 5.9 °F 30.57 in WNW 6.9 mph 4.4 mph 66% 0 in 550.00 W/m2
11:15 15.3 °F 4.9 °F 30.57 in WNW 6.9 mph 4.9 mph 63% 0 in 552.00 W/m2
11:20 15.5 °F 5.8 °F 30.57 in WNW 6.9 mph 5.2 mph 65% 0 in 552.00 W/m2
11:25 15.7 °F 6 °F 30.57 in WNW 8.1 mph 5.5 mph 65% 0 in 554.00 W/m2
11:30 15.8 °F 6.1 °F 30.57 in WNW 9.2 mph 5.1 mph 65% 0 in 555.00 W/m2
11:35 15.9 °F 6.2 °F 30.57 in NW 8.1 mph 3.8 mph 65% 0 in 555.00 W/m2
11:40 16.3 °F 6.9 °F 30.57 in NW 10.4 mph 5.3 mph 66% 0 in 555.00 W/m2
11:45 16.1 °F 5.7 °F 30.57 in NNW 8.1 mph 4.1 mph 63% 0 in 555.00 W/m2
11:50 16.1 °F 6.1 °F 30.57 in NW 4 mph 4 mph 64% 0 in 555.00 W/m2
11:55 16.2 °F 5.8 °F 30.56 in NW 6.9 mph 3.2 mph 63% 0 in 555.00 W/m2
12:00 16.3 °F 5.9 °F 30.56 in NW 9.2 mph 4.8 mph 63% 0 in 554.00 W/m2
12:05 16.4 °F 5.6 °F 30.56 in NNW 6.9 mph 4.2 mph 62% 0 in 548.00 W/m2
12:10 16.4 °F 5.6 °F 30.56 in NW 8.1 mph 5.7 mph 62% 0 in 545.00 W/m2
12:15 16.6 °F 5.8 °F 30.56 in NW 5.8 mph 4.3 mph 62% 0 in 543.00 W/m2
12:20 16.7 °F 5.9 °F 30.56 in WNW 8.1 mph 3.8 mph 62% 0 in 538.00 W/m2
12:25 16.8 °F 5.3 °F 30.55 in WNW 3.5 mph 1.5 mph 60% 0 in 536.00 W/m2
12:30 17.3 °F 6.1 °F 30.55 in NNW 6 mph 2.8 mph 61% 0 in 529.00 W/m2
12:35 17.3 °F 5.4 °F 30.55 in NW 8.1 mph 5.5 mph 59% 0 in 527.00 W/m2
12:40 17.3 °F 5 °F 30.55 in WNW 8.1 mph 4.6 mph 58% 0 in 522.00 W/m2
12:45 17.1 °F 4.5 °F 30.55 in North 6.9 mph 5.4 mph 57% 0 in 517.00 W/m2
12:50 17.3 °F 5 °F 30.54 in WNW 6.9 mph 4 mph 58% 0 in 510.00 W/m2
12:55 17.6 °F 5.3 °F 30.54 in West 5.8 mph 3.3 mph 58% 0 in 504.00 W/m2
13:00 17.7 °F 4.6 °F 30.54 in NW 8.1 mph 5.5 mph 56% 0 in 497.00 W/m2
13:05 17.5 °F 4.1 °F 30.54 in WNW 9.2 mph 5.8 mph 55% 0 in 492.00 W/m2
13:10 17.5 °F 4.5 °F 30.54 in NW 8.1 mph 2.9 mph 56% 0 in 485.00 W/m2
13:15 17.5 °F 4.5 °F 30.54 in WNW 5.8 mph 3.6 mph 56% 0 in 478.00 W/m2
13:20 17.6 °F 4.2 °F 30.54 in WNW 11.5 mph 6.5 mph 55% 0 in 469.00 W/m2
13:25 17.7 °F 4.2 °F 30.54 in North 9.2 mph 5.4 mph 55% 0 in 461.00 W/m2
13:30 17.5 °F 3.7 °F 30.54 in WNW 10.4 mph 5.3 mph 54% 0 in 454.00 W/m2
13:35 17.6 °F 3.3 °F 30.53 in WNW 11.5 mph 5.5 mph 53% 0 in 443.00 W/m2
13:40 17.7 °F 3.8 °F 30.53 in NW 12.7 mph 7.6 mph 54% 0 in 434.00 W/m2
13:45 17.8 °F 3.5 °F 30.53 in NNW 11.5 mph 7.3 mph 53% 0 in 424.00 W/m2
13:50 17.5 °F 3.7 °F 30.53 in WNW 9.2 mph 5.7 mph 54% 0 in 413.00 W/m2
13:55 17.4 °F 3.6 °F 30.52 in NNW 9.2 mph 3.3 mph 54% 0 in 403.00 W/m2
14:00 17.5 °F 3.7 °F 30.52 in WNW 9.2 mph 6.1 mph 54% 0 in 392.00 W/m2
14:05 17.5 °F 4.1 °F 30.52 in West 10.4 mph 3.9 mph 55% 0 in 381.00 W/m2
14:10 17.7 °F 4.2 °F 30.52 in WNW 6.9 mph 3.1 mph 55% 0 in 371.00 W/m2
14:15 17.9 °F 4.4 °F 30.52 in WNW 9.2 mph 2.6 mph 55% 0 in 360.00 W/m2
14:20 18 °F 4.5 °F 30.53 in WNW 8.1 mph 3.4 mph 55% 0 in 348.00 W/m2
14:25 17.8 °F 3.5 °F 30.53 in NW 11.5 mph 4.6 mph 53% 0 in 336.00 W/m2
14:30 17.9 °F 4 °F 30.53 in West 6.9 mph 4.9 mph 54% 0 in 322.00 W/m2
14:35 17.9 °F 4 °F 30.53 in WNW 6.9 mph 3.8 mph 54% 0 in 309.00 W/m2
14:40 17.8 °F 3.9 °F 30.53 in NW 8.1 mph 4.7 mph 54% 0 in 297.00 W/m2
14:45 17.8 °F 3.5 °F 30.53 in WNW 7 mph 4.1 mph 53% 0 in 285.00 W/m2
14:50 17.9 °F 3.2 °F 30.53 in NW 6.9 mph 3.4 mph 52% 0 in 271.00 W/m2
14:55 17.9 °F 2.8 °F 30.53 in NW 8.1 mph 5.3 mph 51% 0 in 253.00 W/m2
15:00 17.9 °F 3.6 °F 30.53 in NNW 4.6 mph 2.1 mph 53% 0 in 236.00 W/m2
15:05 18 °F 3.3 °F 30.53 in NW 8 mph 3.8 mph 52% 0 in 218.00 W/m2
15:10 18 °F 3.7 °F 30.53 in NW 5.8 mph 3.3 mph 53% 0 in 199.00 W/m2
15:15 17.9 °F 3.2 °F 30.53 in NW 5.8 mph 3.7 mph 52% 0 in 179.00 W/m2
15:20 17.8 °F 2.7 °F 30.52 in NNW 8.1 mph 5.6 mph 51% 0 in 165.00 W/m2
15:25 17.6 °F 2.5 °F 30.53 in NW 8.1 mph 4.3 mph 51% 0 in 148.00 W/m2
15:30 17.5 °F 2.8 °F 30.52 in WNW 6.9 mph 4.1 mph 52% 0 in 130.00 W/m2
15:35 17.4 °F 3.2 °F 30.52 in NW 5.8 mph 3.9 mph 53% 0 in 105.00 W/m2
15:40 17.3 °F 3.1 °F 30.52 in WNW 4 mph 2.6 mph 53% 0 in 98.00 W/m2
15:45 17.2 °F 3 °F 30.52 in NW 6.9 mph 2.8 mph 53% 0 in 86.00 W/m2
15:50 17.1 °F 3.3 °F 30.52 in NW 6 mph 2.9 mph 54% 0 in 69.00 W/m2
15:55 16.9 °F 3.1 °F 30.52 in NW 4.6 mph 1.7 mph 54% 0 in 33.00 W/m2
16:00 16.7 °F 2.9 °F 30.52 in NW 4.6 mph 3.7 mph 54% 0 in 26.00 W/m2
16:05 16.5 °F 2.3 °F 30.52 in WNW 5 mph 2.6 mph 53% 0 in 25.00 W/m2
16:10 16.3 °F 2.1 °F 30.52 in NW 5.8 mph 3.3 mph 53% 0 in 21.00 W/m2
16:15 16.2 °F 2.4 °F 30.53 in WNW 4.6 mph 2.4 mph 54% 0 in 19.00 W/m2
16:20 16.1 °F 2.7 °F 30.53 in WNW 3.5 mph 1.2 mph 55% 0 in 14.00 W/m2
16:25 15.9 °F 2.6 °F 30.53 in West 4.6 mph 3.1 mph 55% 0 in 12.00 W/m2
16:30 15.9 °F 3 °F 30.52 in NW 3.5 mph 1.8 mph 56% 0 in 11.00 W/m2
16:35 15.8 °F 2.9 °F 30.52 in WNW 4.6 mph 2.1 mph 56% 0 in 5.00 W/m2
16:40 15.8 °F 3.2 °F 30.52 in WNW 4.6 mph 2.1 mph 57% 0 in 7.00 W/m2
16:45 15.8 °F 3.2 °F 30.52 in West 3.5 mph 2.3 mph 57% 0 in 0.00 W/m2
16:50 15.7 °F 2.8 °F 30.52 in West 3.5 mph 1.8 mph 56% 0 in 0.00 W/m2
16:55 15.6 °F 3.1 °F 30.52 in WNW 2.3 mph 0.3 mph 57% 0 in 0.00 W/m2
17:00 15.5 °F 3 °F 30.52 in WNW 2.3 mph 0.7 mph 57% 0 in 0.00 W/m2
17:05 15.3 °F 2.8 °F 30.52 in WNW 2.3 mph 0.5 mph 57% 0 in 0.00 W/m2
17:10 15.2 °F 2.7 °F 30.52 in West 4.6 mph 1.7 mph 57% 0 in 0.00 W/m2
17:15 15.1 °F 3 °F 30.53 in WSW 2.3 mph 0.7 mph 58% 0 in 0.00 W/m2
17:20 15 °F 3.2 °F 30.53 in West 3.5 mph 0.9 mph 59% 0 in 0.00 W/m2
17:25 14.9 °F 3.1 °F 30.53 in WSW 2.3 mph 0.4 mph 59% 0 in 0.00 W/m2
17:30 14.8 °F 2.7 °F 30.53 in West 1.2 mph   58% 0 in 0.00 W/m2
17:35 14.7 °F 2.9 °F 30.53 in West 1.2 mph 0.1 mph 59% 0 in 0.00 W/m2
17:40 14.5 °F 3.1 °F 30.52 in WSW 2.3 mph 1 mph 60% 0 in 0.00 W/m2
17:45 14.4 °F 3 °F 30.52 in West 2.3 mph 0.8 mph 60% 0 in 0.00 W/m2
17:50 14.2 °F 2.8 °F 30.52 in West 2.3 mph 1.2 mph 60% 0 in 0.00 W/m2
17:55 14.1 °F 3.1 °F 30.52 in SW 3.5 mph 1.2 mph 61% 0 in 0.00 W/m2
18:00 14.1 °F 3.1 °F 30.52 in SW 3.5 mph 1.4 mph 61% 0 in 0.00 W/m2
18:05 14.1 °F 3.5 °F 30.51 in WSW 2.3 mph 0.3 mph 62% 0 in 0.00 W/m2
18:10 14 °F 3.4 °F 30.51 in WSW 1.2 mph 0.4 mph 62% 0 in 0.00 W/m2
18:15 13.8 °F 3.5 °F 30.52 in SW 3.5 mph 1.6 mph 63% 0 in 0.00 W/m2
18:20 13.7 °F 3.4 °F 30.52 in WSW 3.5 mph 2.1 mph 63% 0 in 0.00 W/m2
18:25 13.6 °F 3.3 °F 30.52 in WSW 2.3 mph 0.6 mph 63% 0 in 0.00 W/m2
18:30 13.5 °F 3.2 °F 30.51 in SW 3.5 mph 1 mph 63% 0 in 0.00 W/m2
18:35 13.4 °F 3.5 °F 30.51 in SW 4 mph 2.1 mph 64% 0 in 0.00 W/m2
18:40 13.4 °F 3.5 °F 30.51 in SW 2.3 mph 2 mph 64% 0 in 0.00 W/m2
18:45 13.4 °F 3.5 °F 30.51 in WSW 3.5 mph 2.9 mph 64% 0 in 0.00 W/m2
18:50 13.3 °F 3 °F 30.51 in WSW 4.6 mph 2.4 mph 63% 0 in 0.00 W/m2
18:55 13.3 °F 3.4 °F 30.51 in WSW 5 mph 2.1 mph 64% 0 in 0.00 W/m2
19:00 13.3 °F 3.4 °F 30.51 in WSW 3.5 mph 0.9 mph 64% 0 in 0.00 W/m2
19:05 13.2 °F 3.3 °F 30.50 in SW 3.5 mph 1.5 mph 64% 0 in 0.00 W/m2
19:10 13 °F 3.1 °F 30.50 in SW 2.3 mph 0.6 mph 64% 0 in 0.00 W/m2
19:15 12.9 °F 3 °F 30.50 in WSW 3.5 mph 2.1 mph 64% 0 in 0.00 W/m2
19:20 12.9 °F 3 °F 30.50 in WSW 2.3 mph 0.8 mph 64% 0 in 0.00 W/m2
19:25 12.8 °F 3.2 °F 30.50 in SW 2.3 mph 1 mph 65% 0 in 0.00 W/m2
19:30 12.6 °F 3.1 °F 30.50 in SW 2.3 mph 0.7 mph 65% 0 in 0.00 W/m2
19:35 12.5 °F 3 °F 30.50 in SW 3.5 mph 1.5 mph 65% 0 in 0.00 W/m2
19:40 12.3 °F 3.1 °F 30.50 in SW 3.5 mph 1.3 mph 66% 0 in 0.00 W/m2
19:45 12.2 °F 3 °F 30.50 in Calm     66% 0 in 0.00 W/m2
19:50 12.2 °F 3 °F 30.50 in SW 1.2 mph 0.5 mph 66% 0 in 0.00 W/m2
19:55 12.1 °F 2.9 °F 30.49 in Calm     66% 0 in 0.00 W/m2
20:00 12.1 °F 2.9 °F 30.49 in Calm     66% 0 in 0.00 W/m2
20:05 12.1 °F 3.2 °F 30.50 in Calm     67% 0 in 0.00 W/m2
20:10 12.1 °F 3.2 °F 30.49 in Calm     67% 0 in 0.00 W/m2
20:15 12.1 °F 3.2 °F 30.50 in Calm     67% 0 in 0.00 W/m2
20:20 12.1 °F 3.2 °F 30.49 in Calm     67% 0 in 0.00 W/m2
20:25 12 °F 3.5 °F 30.50 in SW 1.2 mph 0.3 mph 68% 0 in 0.00 W/m2
20:30 11.8 °F 3.3 °F 30.50 in WSW 3.5 mph 2.1 mph 68% 0 in 0.00 W/m2
20:35 11.8 °F 3.3 °F 30.50 in SSW 2.3 mph 0.7 mph 68% 0 in 0.00 W/m2
20:40 11.8 °F 3.3 °F 30.49 in SW 3.5 mph 2 mph 68% 0 in 0.00 W/m2
20:45 11.7 °F 3.2 °F 30.50 in SSW 2.3 mph 1.3 mph 68% 0 in 0.00 W/m2
20:50 11.6 °F 2.8 °F 30.49 in SW 3.5 mph 2 mph 67% 0 in 0.00 W/m2
20:55 11.4 °F 2.6 °F 30.49 in SW 2.3 mph 0.5 mph 67% 0 in 0.00 W/m2
21:00 11.4 °F 2.6 °F 30.49 in SW 2.3 mph 0.5 mph 67% 0 in 0.00 W/m2
Bourbonnais, Illinois, USA
Compliments of Weather Underground - 4 mb